Latest Coastal Weather Observations for Geelong Racecourse

IDV60701

Issued at 5:11 pm EST Wednesday 29 June 2016 (issued every 10 minutes, with the page automatically refreshed every 10 minutes)

About coastal observations | Map of coastal stations | Coastal observations for VIC | Marine services | Other Formats
Station Details ID: 087184 Name: GEELONG RACECOURSE Lat: -38.17 Lon: 144.38 Height: 12.9 m
Data from the previous 72 hours. | See also: Recent months at Geelong Racecourse
Date/Time
EST
Temp
°C
Wind Pressure Rain since
9am
mm
Weather Cloud Vis
km
Sea
Height
m
Swell
Dir  Spd
kts
Gust
kts
hPa Trend Height
m
Period
s
Dir
29/05:00pm 12.5 NNW 9 14 1020.8 - 0.0 - - - - - - -
29/04:30pm 13.6 N 10 17 1021.0 - 0.0 - - - - - - -
29/04:00pm 14.4 NNW 10 15 1021.3 - 0.0 - - - - - - -
29/03:30pm 14.8 NNW 13 18 1021.5 - 0.0 - - - - - - -
29/03:00pm 14.9 N 9 14 1021.7 - 0.0 - - - - - - -
29/02:30pm 15.0 N 11 18 1022.0 - 0.0 - - - - - - -
29/02:00pm 15.3 NNW 12 18 1022.4 - 0.0 - - - - - - -
29/01:30pm 14.6 NNW 10 14 1023.0 - 0.0 - - - - - - -
29/01:00pm 15.5 NNW 11 16 1023.4 - 0.0 - - - - - - -
29/12:30pm 15.0 NNW 10 15 1024.0 - 0.0 - - - - - - -
29/12:00pm 15.2 NNW 10 15 1024.6 - 0.0 - - - - - - -
29/11:30am 15.0 N 9 13 1025.2 - 0.0 - - - - - - -
29/11:00am 14.7 NNW 7 10 1025.7 - 0.0 - - - - - - -
29/10:30am 13.6 N 5 9 1026.0 - 0.0 - - - - - - -
29/10:00am 13.1 NNW 5 8 1026.1 - 0.0 - - - - - - -
29/09:30am 12.0 NW 3 6 1026.1 - 0.0 - - - - - - -
29/09:00am 10.7 NW 3 4 1026.0 - 0.0 - - - - - - -
29/08:30am 9.1 NNW 2 3 1025.9 - 0.0 - - - - - - -
29/08:00am 8.7 NNW 2 4 1025.7 - 0.0 - - - - - - -
29/07:30am 8.7 NNW 3 5 1025.6 - 0.0 - - - - - - -
29/07:00am 9.3 NNW 5 7 1025.4 - 0.0 - - - - - - -
29/06:30am 9.2 NW 6 8 1025.4 - 0.0 - - - - - - -
29/06:00am 9.4 NW 5 8 1025.3 - 0.0 - - - - - - -
29/05:30am 9.4 NNW 6 9 1025.1 - 0.0 - - - - - - -
29/05:00am 9.2 NNW 5 7 1025.0 - 0.0 - - - - - - -
29/04:30am 8.9 NNW 5 7 1025.0 - 0.0 - - - - - - -
29/04:00am 9.1 NNW 5 6 1025.0 - 0.0 - - - - - - -
29/03:30am 9.2 NNW 5 7 1025.2 - 0.0 - - - - - - -
29/03:00am 9.2 NNW 4 5 1025.1 - 0.0 - - - - - - -
29/02:30am 9.3 NNW 4 5 1025.2 - 0.0 - - - - - - -
29/02:00am 9.8 NNW 4 5 1025.2 - 0.0 - - - - - - -
29/01:30am 10.0 NNW 4 5 1025.1 - 0.0 - - - - - - -
29/01:00am 10.2 NW 3 5 1025.3 - 0.0 - - - - - - -
29/12:30am 9.8 NW 3 4 1025.3 - 0.0 - - - - - - -
29/12:00am 10.2 NW 3 3 1025.2 - 0.0 - - - - - - -
 
Date/Time
EST
Temp
°C
Wind Pressure Rain since
9am
mm
Weather Cloud Vis
km
Sea
Height
m
Swell
Dir  Spd
kts
Gust
kts
hPa Trend Height
m
Period
s
Dir
28/11:30pm 10.8 NW 3 5 1025.4 - 0.0 - - - - - - -
28/11:00pm 10.9 NNW 3 4 1025.5 - 0.0 - - - - - - -
28/10:30pm 10.7 N 3 3 1025.5 - 0.0 - - - - - - -
28/10:00pm 10.9 N 2 3 1025.3 - 0.0 - - - - - - -
28/09:30pm 11.1 N 3 4 1025.3 - 0.0 - - - - - - -
28/09:00pm 11.8 NNW 5 6 1025.2 - 0.0 - - - - - - -
28/08:30pm 12.0 NNW 5 7 1025.2 - 0.0 - - - - - - -
28/08:00pm 12.0 NNW 4 6 1025.1 - 0.0 - - - - - - -
28/07:30pm 12.3 NNW 6 10 1024.8 - 0.0 - - - - - - -
28/07:00pm 12.5 NNW 6 9 1024.6 - 0.0 - - - - - - -
28/06:30pm 12.5 NNW 6 8 1024.5 - 0.0 - - - - - - -
28/06:00pm 13.2 NNW 6 9 1024.2 - 0.0 - - - - - - -
28/05:30pm 13.6 NNW 5 7 1023.8 - 0.0 - - - - - - -
28/05:00pm 13.9 NW 4 7 1023.6 - 0.0 - - - - - - -
28/04:30pm 14.6 WNW 5 8 1023.3 - 0.0 - - - - - - -
28/04:00pm 14.8 WSW 5 7 1023.2 - 0.0 - - - - - - -
28/03:30pm 14.4 W 7 11 1023.1 - 0.0 - - - - - - -
28/03:00pm 15.3 W 8 14 1022.9 - 0.0 - - - - - - -
28/02:30pm 15.1 WNW 7 11 1022.8 - 0.0 - - - - - - -
28/02:00pm 15.7 WNW 11 15 1022.8 - 0.0 - - - - - - -
28/01:30pm 14.7 WNW 11 18 1022.8 - 0.0 - - - - - - -
28/01:00pm 14.5 WNW 10 15 1022.9 - 0.0 - - - - - - -
28/12:30pm 15.0 WNW 11 17 1022.9 - 0.0 - - - - - - -
28/12:00pm 14.7 WNW 8 15 1023.0 - 0.0 - - - - - - -
28/11:30am 14.6 NW 11 16 1023.4 - 0.0 - - - - - - -
28/11:00am 14.0 NW 10 15 1023.5 - 0.0 - - - - - - -
28/10:30am 13.3 NW 9 14 1023.3 - 0.0 - - - - - - -
28/10:00am 11.7 NNW 5 9 1023.1 - 0.0 - - - - - - -
28/09:30am 10.9 NW 6 11 1022.9 - 0.0 - - - - - - -
28/09:00am 10.6 NW 5 9 1022.8 - 0.0 - - - - - - -
28/08:30am 9.3 NW 5 7 1022.5 - 0.0 - - - - - - -
28/08:00am 8.6 NNW 7 8 1022.2 - 0.0 - - - - - - -
28/07:30am 9.0 NNW 6 9 1022.1 - 0.0 - - - - - - -
28/07:00am 8.6 N 4 7 1021.7 - 0.0 - - - - - - -
28/06:30am 8.0 NW 6 8 1021.5 - 0.0 - - - - - - -
28/06:00am 7.4 NNW 5 7 1021.3 - 0.0 - - - - - - -
28/05:30am 7.5 NW 6 8 1020.9 - 0.0 - - - - - - -
28/05:00am 8.1 NW 9 12 1020.7 - 0.0 - - - - - - -
28/04:30am 8.4 NW 8 11 1020.6 - 0.0 - - - - - - -
28/04:00am 8.2 NW 5 9 1020.8 - 0.0 - - - - - - -
28/03:30am 7.5 NW 6 9 1020.7 - 0.0 - - - - - - -
28/03:00am 7.1 NW 6 8 1020.9 - 0.0 - - - - - - -
28/02:30am 7.3 NW 7 9 1020.7 - 0.0 - - - - - - -
28/02:00am 7.3 NW 7 10 1020.6 - 0.0 - - - - - - -
28/01:30am 6.9 NW 5 8 1020.6 - 0.0 - - - - - - -
28/01:00am 7.3 NW 5 8 1020.7 - 0.0 - - - - - - -
28/12:30am 7.4 NW 6 9 1020.8 - 0.0 - - - - - - -
28/12:00am 6.1 NNW 3 4 1021.0 - 0.0 - - - - - - -
 
Date/Time
EST
Temp
°C
Wind Pressure Rain since
9am
mm
Weather Cloud Vis
km
Sea
Height
m
Swell
Dir  Spd
kts
Gust
kts
hPa Trend Height
m
Period
s
Dir
27/11:30pm 5.9 NNW 2 3 1020.9 - 0.0 - - - - - - -
27/11:00pm 7.0 NNW 3 5 1020.7 - 0.0 - - - - - - -
27/10:30pm 7.0 NNW 4 6 1020.7 - 0.0 - - - - - - -
27/10:00pm 7.3 NNW 3 4 1020.5 - 0.0 - - - - - - -
27/09:30pm 7.4 NNW 3 5 1020.4 - 0.0 - - - - - - -
27/09:00pm 7.3 NNW 4 5 1020.2 - 0.0 - - - - - - -
27/08:30pm 7.7 NW 4 6 1020.1 - 0.0 - - - - - - -
27/08:00pm 8.1 NNW 4 6 1019.8 - 0.0 - - - - - - -
27/07:30pm 8.8 NW 5 7 1019.6 - 0.0 - - - - - - -
27/07:00pm 9.1 NW 5 7 1019.3 - 0.0 - - - - - - -
27/06:30pm 9.7 NW 5 7 1019.0 - 0.0 - - - - - - -
27/06:00pm 10.6 NW 4 6 1018.7 - 0.0 - - - - - - -
27/05:30pm 10.5 NW 6 9 1018.4 - 0.0 - - - - - - -
27/05:00pm 10.9 NW 3 5 1018.1 - 0.0 - - - - - - -
27/04:30pm 11.8 NW 6 10 1017.8 - 0.0 - - - - - - -
27/04:00pm 12.2 WNW 5 8 1017.7 - 0.0 - - - - - - -
27/03:30pm 11.8 WNW 8 11 1017.5 - 0.0 - - - - - - -
27/03:00pm 12.3 W 8 13 1017.3 - 0.0 - - - - - - -
27/02:30pm 11.5 W 8 13 1017.3 - 0.0 - - - - - - -
27/02:00pm 11.2 WNW 7 11 1017.1 - 0.0 - - - - - - -
27/01:30pm 10.9 WNW 9 13 1017.1 - 0.0 - - - - - - -
27/01:00pm 10.4 WNW 9 16 1017.2 - 0.0 - - - - - - -
27/12:30pm 10.4 WNW 12 18 1017.2 - 0.0 - - - - - - -
27/12:00pm 10.3 WNW 12 19 1017.4 - 0.0 - - - - - - -
27/11:30am 10.3 WNW 9 16 1017.4 - 0.0 - - - - - - -
27/11:00am 9.8 WNW 9 16 1017.3 - 0.0 - - - - - - -
27/10:30am 9.2 WNW 7 12 1017.5 - 0.0 - - - - - - -
27/10:00am 8.7 WNW 6 13 1017.3 - 0.0 - - - - - - -
27/09:30am 8.6 WNW 5 9 1017.3 - 0.0 - - - - - - -
27/09:00am 8.2 NW 5 7 1017.1 - 0.2 - - - - - - -
27/08:30am 7.8 NW 6 8 1016.7 - 0.2 - - - - - - -
27/08:00am 7.6 NW 6 9 1016.3 - 0.2 - - - - - - -
27/07:30am 7.7 NW 6 9 1016.0 - 0.2 - - - - - - -
27/07:00am 7.6 NNW 5 8 1015.9 - 0.2 - - - - - - -
27/06:30am 7.6 NW 6 10 1015.7 - 0.2 - - - - - - -
27/06:00am 7.7 NW 7 10 1015.6 - 0.2 - - - - - - -
27/05:30am 7.7 NNW 5 8 1015.4 - 0.2 - - - - - - -
27/05:00am 7.8 NNW 5 8 1014.9 - 0.2 - - - - - - -
27/04:30am 7.3 NW 5 7 1014.9 - 0.2 - - - - - - -
27/04:00am 7.0 NNW 4 7 1015.1 - 0.2 - - - - - - -
27/03:30am 6.8 NW 4 5 1015.2 - 0.0 - - - - - - -
27/03:00am 6.8 NW 5 6 1015.3 - 0.0 - - - - - - -
27/02:30am 6.3 NNW 5 6 1015.2 - 0.0 - - - - - - -
27/02:00am 5.9 N 4 6 1015.4 - 0.0 - - - - - - -
27/01:30am 5.7 N 5 7 1015.6 - 0.0 - - - - - - -
27/01:00am 5.3 N 4 5 1015.6 - 0.0 - - - - - - -
27/12:30am 5.3 NNW 4 6 1015.6 - 0.0 - - - - - - -
27/12:00am 5.3 NNW 4 6 1015.7 - 0.0 - - - - - - -
 
Date/Time
EST
Temp
°C
Wind Pressure Rain since
9am
mm
Weather Cloud Vis
km
Sea
Height
m
Swell
Dir  Spd
kts
Gust
kts
hPa Trend Height
m
Period
s
Dir
26/11:30pm 5.2 N 3 4 1015.8 - 0.0 - - - - - - -
26/11:00pm 5.4 NNW 3 5 1015.8 - 0.0 - - - - - - -
26/10:30pm 5.1 NNW 4 6 1015.7 - 0.0 - - - - - - -
26/10:00pm 5.1 N 3 4 1015.9 - 0.0 - - - - - - -
26/09:30pm 5.4 N 3 4 1016.0 - 0.0 - - - - - - -
26/09:00pm 5.9 N 4 7 1016.2 - 0.0 - - - - - - -
26/08:30pm 6.4 N 4 7 1016.4 - 0.0 - - - - - - -
26/08:00pm 6.2 N 4 7 1016.5 - 0.0 - - - - - - -
26/07:30pm 6.4 N 3 4 1016.5 - 0.0 - - - - - - -
26/07:00pm 7.1 N 4 6 1016.5 - 0.0 - - - - - - -
26/06:30pm 7.9 N 6 9 1016.3 - 0.0 - - - - - - -
26/06:00pm 8.2 N 6 7 1016.4 - 0.0 - - - - - - -
26/05:30pm 8.7 N 6 9 1016.2 - 0.0 - - - - - - -

Other Formats:

Comma delimited format used in spreadsheet applications
http://www.bom.gov.au/fwo/IDV60701/IDV60701.94857.axf

JavaScript Object Notation format (JSON) in row-major order
http://www.bom.gov.au/fwo/IDV60701/IDV60701.94857.json